Time;durP1;ratioP1;P1;durP2;ratioP2;P2;SDS_P1;SDS_P2;PMS_P1;PMS_P2;Temp;Humidity;BMP_temperature;BMP_pressure;BME280_temperature;BME280_humidity;BME280_pressure;Samples;Min_cycle;Max_cycle;Signal;HPM_P1;HPM_P2
2021/12/17 00:07:04;;;;;;;21.52;11.33;;;;;;;3.75;100.00;100092.63;1658767;86;21013;-76
2021/12/17 00:09:32;;;;;;;29.27;14.83;;;;;;;3.73;100.00;100099.18;1647609;86;21155;-75
2021/12/17 00:11:59;;;;;;;23.65;12.68;;;;;;;3.73;100.00;100094.41;1627784;88;22146;-75
2021/12/17 00:14:36;;;;;;;20.70;10.88;;;;;;;3.70;100.00;100090.06;1627816;88;21167;-75
2021/12/17 00:16:59;;;;;;;21.02;11.90;;;;;;;3.73;100.00;100085.30;1625915;88;21185;-76
2021/12/17 00:44:19;;;;;;;20.05;10.08;;;;;;;3.65;100.00;100094.91;1615299;88;21225;-71
2021/12/17 00:49:23;;;;;;;23.60;11.75;;;;;;;3.57;100.00;100090.64;1618030;88;21047;-73
2021/12/17 00:54:30;;;;;;;19.37;10.50;;;;;;;3.55;100.00;100089.79;1618113;88;21102;-72
2021/12/17 00:56:53;;;;;;;21.65;10.43;;;;;;;3.54;100.00;100087.19;1656364;85;21168;-71
2021/12/17 00:59:19;;;;;;;17.48;9.48;;;;;;;3.52;100.00;100085.92;1671887;85;21538;-74
2021/12/17 01:01:47;;;;;;;19.85;9.95;;;;;;;3.51;100.00;100089.38;1651799;85;21052;-73
2021/12/17 01:04:13;;;;;;;20.48;10.43;;;;;;;3.55;100.00;100078.52;1644343;87;21801;-73
2021/12/17 01:06:41;;;;;;;18.35;9.80;;;;;;;3.54;100.00;100076.36;1644578;87;21136;-74
2021/12/17 01:09:10;;;;;;;20.88;10.08;;;;;;;3.54;100.00;100071.56;1669552;85;21161;-73
2021/12/17 01:11:38;;;;;;;16.77;8.73;;;;;;;3.53;100.00;100070.70;1670204;85;21061;-73
2021/12/17 01:14:23;;;;;;;16.17;7.78;;;;;;;3.50;100.00;100069.89;1564466;91;21592;-73
2021/12/17 01:16:58;;;;;;;18.57;8.28;;;;;;;3.47;100.00;100064.25;1619586;87;21065;-73
2021/12/17 01:24:38;;;;;;;16.27;7.87;;;;;;;3.46;100.00;100056.02;1669894;85;21177;-73
2021/12/17 01:35:34;;;;;;;13.43;6.67;;;;;;;3.44;100.00;100055.17;1639831;87;21750;-72
2021/12/17 01:41:45;;;;;;;12.20;6.33;;;;;;;3.42;100.00;100051.72;1643976;87;21079;-76
2021/12/17 01:43:47;;;;;;;12.28;6.00;;;;;;;3.39;100.00;100043.94;1639633;85;21086;-73
2021/12/17 01:48:34;;;;;;;11.83;6.63;;;;;;;3.39;100.00;100036.13;1795494;79;25551;-71
2021/12/17 01:56:37;;;;;;;13.30;6.05;;;;;;;3.36;100.00;100040.08;1755424;81;21063;-74
2021/12/17 02:01:43;;;;;;;10.08;4.85;;;;;;;3.33;100.00;100029.22;1725363;82;20208;-75
2021/12/17 02:04:10;;;;;;;11.00;5.78;;;;;;;3.31;100.00;100028.82;1715162;83;21118;-73
2021/12/17 02:06:38;;;;;;;9.90;4.95;;;;;;;3.31;100.00;100031.42;1686676;83;21153;-74
2021/12/17 02:09:30;;;;;;;11.10;5.42;;;;;;;3.28;100.00;100035.36;1715340;83;21524;-75
2021/12/17 02:12:17;;;;;;;9.75;5.33;;;;;;;3.26;100.00;100039.72;1711878;83;21072;-76
2021/12/17 02:20:13;;;;;;;9.05;4.08;;;;;;;3.26;100.00;100034.51;1677227;85;21170;-74
2021/12/17 02:23:04;;;;;;;10.90;4.47;;;;;;;3.25;100.00;100022.39;1697644;83;21515;-74
2021/12/17 02:33:18;;;;;;;7.40;3.30;;;;;;;3.23;100.00;100020.23;1723557;83;21095;-74
2021/12/17 02:35:46;;;;;;;10.05;3.65;;;;;;;3.22;100.00;100025.00;1693525;84;21132;-75
2021/12/17 02:38:16;;;;;;;7.55;3.27;;;;;;;3.21;100.00;100025.89;1693242;84;21119;-74
2021/12/17 02:46:50;;;;;;;6.70;3.10;;;;;;;3.23;100.00;100018.93;1660177;85;21168;-74
2021/12/17 02:49:16;;;;;;;8.73;2.90;;;;;;;3.19;100.00;100013.33;1656585;86;21045;-73
2021/12/17 02:51:43;;;;;;;7.30;3.00;;;;;;;3.20;100.00;100012.44;1690294;84;21072;-74
2021/12/17 02:54:12;;;;;;;4.65;2.77;;;;;;;3.15;100.00;100015.97;1656550;86;21049;-73
2021/12/17 02:56:39;;;;;;;7.78;2.72;;;;;;;3.15;100.00;100015.08;1697897;83;21139;-73
2021/12/17 02:59:10;;;;;;;4.75;2.50;;;;;;;3.14;100.00;100011.62;1679711;84;21119;-73
2021/12/17 03:01:36;;;;;;;4.50;2.60;;;;;;;3.12;100.00;100014.66;1718734;82;21573;-74
2021/12/17 03:04:03;;;;;;;5.35;2.70;;;;;;;3.14;100.00;100006.86;1719004;83;22179;-74
2021/12/17 03:06:31;;;;;;;6.40;2.80;;;;;;;3.11;100.00;100011.66;1718534;83;21224;-73
2021/12/17 03:08:57;;;;;;;8.63;3.12;;;;;;;3.09;100.00;100014.70;1718598;83;21577;-73
2021/12/17 03:11:24;;;;;;;7.60;2.65;;;;;;;3.09;100.00;100013.41;1718765;83;21136;-74
2021/12/17 03:13:52;;;;;;;5.65;2.90;;;;;;;3.07;100.00;100011.25;1718704;83;21617;-73
2021/12/17 03:16:37;;;;;;;7.72;2.80;;;;;;;3.07;100.00;100006.05;1719381;83;21042;-76
2021/12/17 03:24:22;;;;;;;4.65;2.47;;;;;;;3.15;100.00;100013.77;1719052;83;21149;-73
2021/12/17 03:26:50;;;;;;;4.58;2.30;;;;;;;3.13;100.00;100014.25;1719814;83;21053;-74
2021/12/17 03:29:17;;;;;;;6.17;2.30;;;;;;;3.10;100.00;100007.31;1725738;82;21148;-74
2021/12/17 03:31:46;;;;;;;4.35;2.47;;;;;;;3.11;100.00;100007.75;1719937;83;21077;-74
2021/12/17 03:34:18;;;;;;;6.08;2.65;;;;;;;3.11;100.00;100009.05;1685030;84;21167;-75
2021/12/17 03:36:42;;;;;;;4.15;2.35;;;;;;;3.13;100.00;100008.60;1684942;85;21676;-72
2021/12/17 03:39:08;;;;;;;7.08;2.77;;;;;;;3.10;100.00;100005.16;1719802;83;21037;-73
2021/12/17 03:41:47;;;;;;;8.45;2.77;;;;;;;3.05;100.00;100001.29;1719931;83;21537;-74
2021/12/17 03:44:07;;;;;;;7.20;2.98;;;;;;;3.02;100.00;99998.72;1720212;83;21041;-74
2021/12/17 03:46:53;;;;;;;6.60;2.52;;;;;;;3.02;100.00;99998.72;1719504;83;21002;-74
2021/12/17 03:49:22;;;;;;;6.10;3.12;;;;;;;2.99;100.00;99997.46;1677761;85;21132;-74
2021/12/17 03:52:05;;;;;;;6.25;2.80;;;;;;;3.01;100.00;99993.08;1712531;83;21121;-75
2021/12/17 03:54:37;;;;;;;5.40;2.85;;;;;;;3.00;100.00;99995.72;1712326;82;21065;-73
2021/12/17 03:57:10;;;;;;;4.95;3.02;;;;;;;2.98;100.00;99993.56;1671654;85;21524;-74
2021/12/17 03:59:38;;;;;;;6.55;2.92;;;;;;;2.95;100.00;99994.45;1678169;85;21112;-73
2021/12/17 04:02:06;;;;;;;5.22;2.83;;;;;;;2.91;100.00;99994.89;1712432;83;21149;-74
2021/12/17 04:04:32;;;;;;;3.83;2.70;;;;;;;2.93;100.00;99994.89;1712404;82;21114;-73
2021/12/17 04:07:04;;;;;;;4.12;2.42;;;;;;;2.96;100.00;99994.86;1687067;83;21658;-74
2021/12/17 04:09:36;;;;;;;4.92;2.40;;;;;;;2.93;100.00;99989.70;1700706;83;21616;-76
2021/12/17 04:12:11;;;;;;;5.78;2.60;;;;;;;2.88;100.00;99987.13;1712353;82;21058;-74
2021/12/17 04:14:44;;;;;;;6.97;2.72;;;;;;;2.84;100.00;99979.36;1711522;82;21873;-73
2021/12/17 04:17:09;;;;;;;;;;;;;;;2.82;100.00;99983.71;1680102;84;21072;-73
2021/12/17 04:19:36;;;;;;;8.00;2.50;;;;;;;2.80;100.00;99986.75;1665287;86;20199;-73
2021/12/17 04:22:03;;;;;;;4.83;2.60;;;;;;;2.75;100.00;99991.99;1677462;85;21077;-75
2021/12/17 04:24:30;;;;;;;4.80;2.80;;;;;;;2.73;100.00;99983.34;1677642;85;21120;-73
2021/12/17 04:26:57;;;;;;;4.97;3.00;;;;;;;2.76;100.00;99989.84;1677592;85;21156;-73
2021/12/17 04:29:25;;;;;;;5.42;2.75;;;;;;;2.77;100.00;99988.09;1677477;85;21082;-73
2021/12/17 04:31:55;;;;;;;7.28;3.12;;;;;;;2.73;100.00;99993.30;1677298;85;21116;-73
2021/12/17 04:34:23;;;;;;;5.97;3.37;;;;;;;2.75;100.00;99988.53;1677097;85;21049;-75
2021/12/17 04:37:01;;;;;;;6.95;3.10;;;;;;;2.73;100.00;99988.09;1677208;85;21069;-73
2021/12/17 04:39:35;;;;;;;6.20;3.52;;;;;;;2.73;100.00;99984.64;1667283;85;21117;-73
2021/12/17 04:42:11;;;;;;;6.50;3.90;;;;;;;2.73;100.00;99985.48;1672437;85;21552;-74
2021/12/17 04:44:36;;;;;;;11.25;4.80;;;;;;;2.77;100.00;99985.48;1640935;85;21161;-68
2021/12/17 04:58:01;;;;;;;7.55;3.70;;;;;;;2.83;100.00;99982.82;1670848;85;21080;-68
2021/12/17 05:00:30;;;;;;;9.15;3.25;;;;;;;2.85;100.00;99981.08;1670891;85;21046;-67
2021/12/17 05:03:04;;;;;;;9.40;3.33;;;;;;;2.84;100.00;99979.36;1672673;85;21063;-68
2021/12/17 05:05:32;;;;;;;8.23;3.37;;;;;;;2.85;100.00;99978.47;1719969;83;21141;-69
2021/12/17 05:08:05;;;;;;;10.35;3.50;;;;;;;2.85;100.00;99975.88;1719515;83;21132;-69
2021/12/17 05:11:00;;;;;;;6.35;3.35;;;;;;;2.86;100.00;99976.31;1720002;83;20998;-68
2021/12/17 05:18:53;;;;;;;8.93;3.40;;;;;;;2.87;100.00;99970.22;1719325;83;21128;-71
2021/12/17 05:21:14;;;;;;;9.90;3.20;;;;;;;2.87;100.00;99974.98;1717583;83;21042;-67
2021/12/17 05:23:44;;;;;;;9.65;3.17;;;;;;;2.85;100.00;99973.27;1684826;85;21102;-69
2021/12/17 05:26:16;;;;;;;10.25;3.47;;;;;;;2.83;100.00;99973.30;1685316;83;21091;-69
2021/12/17 05:28:47;;;;;;;6.60;3.00;;;;;;;2.84;100.00;99972.86;1684775;85;21126;-70
2021/12/17 05:31:15;;;;;;;8.23;3.20;;;;;;;2.83;100.00;99975.91;1697949;83;21151;-70
2021/12/17 05:33:43;;;;;;;12.50;3.50;;;;;;;2.81;100.00;99971.59;1695400;84;21121;-70
2021/12/17 05:36:10;;;;;;;6.33;3.33;;;;;;;2.83;100.00;99972.41;1696374;83;21014;-72
2021/12/17 05:38:39;;;;;;;6.00;2.80;;;;;;;2.85;100.00;99969.38;1672992;84;21136;-69
2021/12/17 05:41:09;;;;;;;8.50;2.98;;;;;;;2.84;100.00;99963.76;1655679;86;21084;-73
2021/12/17 05:43:38;;;;;;;6.42;2.60;;;;;;;2.85;100.00;99968.07;1687336;84;21210;-71
2021/12/17 05:46:11;;;;;;;7.25;2.58;;;;;;;2.84;100.00;99971.56;1689277;84;21332;-70
2021/12/17 05:48:36;;;;;;;7.85;2.42;;;;;;;2.82;100.00;99963.76;1691888;84;21073;-70
2021/12/17 05:51:06;;;;;;;6.37;2.52;;;;;;;2.80;100.00;99960.30;1704364;82;21726;-70
2021/12/17 05:53:33;;;;;;;9.45;2.70;;;;;;;2.78;100.00;99959.89;1696247;84;21096;-71
2021/12/17 05:56:00;;;;;;;5.35;2.35;;;;;;;2.75;100.00;99958.63;1710217;83;21138;-71
2021/12/17 05:58:29;;;;;;;7.97;2.90;;;;;;;2.72;100.00;99962.13;1687148;84;21591;-71
2021/12/17 06:00:57;;;;;;;8.90;3.13;;;;;;;2.71;100.00;99963.86;1656046;85;21115;-72
2021/12/17 06:03:40;;;;;;;7.47;2.72;;;;;;;2.72;100.00;99970.78;1648516;85;21373;-69
2021/12/17 06:06:08;;;;;;;10.23;3.20;;;;;;;2.71;100.00;99972.08;1669388;85;21093;-70
2021/12/17 06:08:35;;;;;;;8.93;3.17;;;;;;;2.72;100.00;99973.38;1664482;84;22106;-69
2021/12/17 06:11:02;;;;;;;9.85;3.08;;;;;;;2.72;100.00;99975.98;1676326;84;21050;-71
2021/12/17 06:13:29;;;;;;;10.80;3.30;;;;;;;2.71;100.00;99976.87;1664504;84;21136;-69
2021/12/17 06:15:58;;;;;;;7.10;2.98;;;;;;;2.71;100.00;99979.47;1666197;85;21065;-70
2021/12/17 06:18:24;;;;;;;7.40;3.37;;;;;;;2.69;100.00;99978.61;1677686;85;21132;-71
2021/12/17 06:20:52;;;;;;;6.83;3.10;;;;;;;2.67;100.00;99982.95;1690149;84;21048;-69
2021/12/17 06:23:21;;;;;;;7.83;3.08;;;;;;;2.66;100.00;99970.81;1657310;86;21077;-70
2021/12/17 06:25:48;;;;;;;9.10;3.30;;;;;;;2.66;100.00;99979.91;1654484;85;21042;-72
2021/12/17 06:28:16;;;;;;;8.55;3.10;;;;;;;2.64;100.00;99969.95;1707629;83;21016;-71
2021/12/17 06:30:43;;;;;;;8.78;3.45;;;;;;;2.62;100.00;99973.03;1680464;84;21077;-70
2021/12/17 06:33:12;;;;;;;10.90;3.45;;;;;;;2.62;100.00;99971.73;1701122;84;21111;-71
2021/12/17 06:35:39;;;;;;;9.88;3.87;;;;;;;2.61;100.00;99973.89;1683244;84;21105;-70
2021/12/17 06:38:06;;;;;;;8.58;3.15;;;;;;;2.62;100.00;99975.63;1699507;84;21121;-70
2021/12/17 06:40:34;;;;;;;9.93;3.40;;;;;;;2.64;100.00;99973.86;1690439;84;21021;-70
2021/12/17 06:43:01;;;;;;;7.90;3.00;;;;;;;2.67;100.00;99977.76;1690672;84;21080;-71
2021/12/17 06:45:49;;;;;;;10.65;3.55;;;;;;;2.66;100.00;99969.52;1690501;84;21384;-70
2021/12/17 06:48:12;;;;;;;9.80;3.67;;;;;;;2.71;100.00;99965.58;1687910;84;21075;-71
2021/12/17 07:10:45;;;;;;;10.45;3.70;;;;;;;2.72;100.00;99977.28;1718900;83;21081;-70
2021/12/17 07:34:49;;;;;;;9.78;4.30;;;;;;;2.89;100.00;99982.78;1706770;83;21115;-70
2021/12/17 07:39:40;;;;;;;9.80;4.35;;;;;;;2.85;100.00;99983.67;1706602;83;21176;-69
2021/12/17 07:42:08;;;;;;;14.60;4.40;;;;;;;2.85;100.00;99986.28;1708085;83;21049;-70
2021/12/17 07:44:38;;;;;;;6.90;3.62;;;;;;;2.86;100.00;99985.42;1676859;84;21049;-68
2021/12/17 07:47:15;;;;;;;7.25;3.37;;;;;;;2.89;100.00;99985.38;1661287;84;21096;-69
2021/12/17 07:49:44;;;;;;;7.15;4.05;;;;;;;2.90;100.00;99979.33;1665880;84;21081;-68
2021/12/17 07:52:10;;;;;;;10.82;4.22;;;;;;;2.93;100.00;99981.45;1714536;83;21306;-68
2021/12/17 07:54:39;;;;;;;9.85;3.75;;;;;;;2.95;100.00;99984.05;1705522;83;21699;-70
2021/12/17 07:57:06;;;;;;;8.43;4.72;;;;;;;3.00;100.00;99978.36;1704090;83;21063;-70
2021/12/17 07:59:36;;;;;;;8.23;3.55;;;;;;;3.04;100.00;99981.81;1715927;83;21537;-69
2021/12/17 08:02:03;;;;;;;14.00;4.70;;;;;;;3.04;100.00;99977.46;1684872;84;21080;-71
2021/12/17 08:04:33;;;;;;;15.08;7.03;;;;;;;3.05;100.00;99980.47;1685922;84;21128;-70
2021/12/17 08:07:04;;;;;;;22.13;10.90;;;;;;;3.04;100.00;99973.56;1685471;83;21063;-69
2021/12/17 08:09:33;;;;;;;13.50;6.65;;;;;;;3.04;100.00;99978.77;1690903;84;21062;-70
2021/12/17 08:12:05;;;;;;;8.60;3.95;;;;;;;3.05;100.00;99977.87;1693093;83;21109;-70
2021/12/17 08:14:35;;;;;;;8.88;3.87;;;;;;;3.07;100.00;99977.87;1717727;83;21039;-70
2021/12/17 08:17:28;;;;;;;11.10;3.00;;;;;;;3.10;100.00;99979.98;1718439;83;22471;-72
2021/12/17 08:25:26;;;;;;;4.70;1.70;;;;;;;3.04;100.00;99972.26;1718813;83;21061;-70
2021/12/17 08:27:42;;;;;;;3.70;1.70;;;;;;;3.01;100.00;99973.56;1718036;83;21065;-72
2021/12/17 08:32:45;;;;;;;3.15;1.98;;;;;;;2.99;100.00;99970.55;1717108;83;21573;-71
2021/12/17 08:35:13;;;;;;;4.78;2.02;;;;;;;2.99;100.00;99977.95;1719031;83;21034;-70
2021/12/17 08:37:41;;;;;;;2.40;1.60;;;;;;;2.96;100.00;99983.59;1658825;84;21128;-70
2021/12/17 08:40:08;;;;;;;3.35;2.02;;;;;;;2.92;100.00;99980.14;1674670;84;21060;-70
2021/12/17 08:42:37;;;;;;;4.67;1.77;;;;;;;2.90;100.00;99983.23;1684285;84;21159;-70
2021/12/17 08:45:08;;;;;;;3.45;1.85;;;;;;;2.84;100.00;99976.77;1719726;82;21049;-72
2021/12/17 08:47:51;;;;;;;4.37;1.90;;;;;;;2.85;100.00;99971.56;1688701;83;21643;-70
2021/12/17 08:50:37;;;;;;;4.17;1.60;;;;;;;2.84;100.00;99974.16;1712400;83;21056;-70
2021/12/17 08:53:04;;;;;;;5.87;1.90;;;;;;;2.85;100.00;99974.57;1685160;84;21120;-70
2021/12/17 08:55:31;;;;;;;7.12;1.80;;;;;;;2.86;100.00;99974.57;1690635;84;21255;-71
2021/12/17 08:57:58;;;;;;;4.58;2.12;;;;;;;2.86;100.00;99969.81;1712384;82;21116;-71
2021/12/17 09:00:25;;;;;;;4.78;1.90;;;;;;;2.89;100.00;99969.78;1711744;82;21034;-69
2021/12/17 09:02:59;;;;;;;2.85;1.50;;;;;;;2.88;100.00;99960.27;1714297;83;21057;-71
2021/12/17 09:05:30;;;;;;;3.85;2.00;;;;;;;2.87;100.00;99963.72;1687251;84;21050;-70
2021/12/17 09:07:56;;;;;;;5.05;1.70;;;;;;;2.87;100.00;99961.97;1714590;83;21174;-69
2021/12/17 09:10:45;;;;;;;6.33;2.05;;;;;;;2.88;100.00;99958.96;1686991;84;21080;-69
2021/12/17 09:13:12;;;;;;;3.15;1.82;;;;;;;2.88;100.00;99964.16;1712521;83;21589;-68
2021/12/17 09:15:39;;;;;;;4.30;1.85;;;;;;;2.86;100.00;99960.27;1716343;83;21030;-69
2021/12/17 09:18:12;;;;;;;5.08;1.72;;;;;;;2.86;100.00;99957.66;1713734;82;21127;-70
2021/12/17 09:20:40;;;;;;;4.65;1.98;;;;;;;2.86;100.00;99955.51;1704082;83;21128;-71
2021/12/17 09:23:08;;;;;;;4.40;1.87;;;;;;;2.88;100.00;99948.55;1719229;83;21093;-68
2021/12/17 09:25:35;;;;;;;4.22;1.87;;;;;;;2.89;100.00;99945.06;1719569;83;21540;-69
2021/12/17 09:28:05;;;;;;;4.87;1.98;;;;;;;2.89;100.00;99943.77;1688761;84;21445;-69
2021/12/17 09:30:35;;;;;;;6.55;2.37;;;;;;;2.88;100.00;99948.55;1702754;84;21579;-69
2021/12/17 09:33:01;;;;;;;5.97;2.00;;;;;;;2.86;100.00;99946.41;1718053;83;21158;-69
2021/12/17 09:35:29;;;;;;;4.37;2.00;;;;;;;2.91;100.00;99944.62;1717273;83;21069;-68
2021/12/17 09:37:56;;;;;;;3.10;1.75;;;;;;;2.90;100.00;99943.77;1711724;83;21089;-70
2021/12/17 09:40:22;;;;;;;2.72;1.80;;;;;;;2.92;100.00;99939.83;1711125;83;21053;-70
2021/12/17 09:42:49;;;;;;;6.17;2.22;;;;;;;2.91;100.00;99940.72;1711318;83;21617;-69
2021/12/17 09:45:16;;;;;;;9.40;2.25;;;;;;;2.93;100.00;99941.57;1711560;83;21128;-70
2021/12/17 09:47:44;;;;;;;4.15;2.33;;;;;;;3.02;100.00;99932.38;1710957;83;21076;-69
2021/12/17 09:50:18;;;;;;;3.80;1.85;;;;;;;3.00;100.00;99912.46;1706763;83;21054;-70
2021/12/17 09:52:45;;;;;;;11.03;2.30;;;;;;;3.20;100.00;99923.95;1704064;84;21037;-70
2021/12/17 09:55:12;;;;;;;5.00;1.90;;;;;;;3.33;100.00;99924.25;1704435;83;21109;-69
2021/12/17 09:57:38;;;;;;;6.25;2.70;;;;;;;3.37;100.00;99925.95;1703992;83;21018;-69
2021/12/17 10:00:10;;;;;;;10.23;2.40;;;;;;;3.40;100.00;99925.91;1703798;82;21002;-70
2021/12/17 10:02:38;;;;;;;5.37;2.22;;;;;;;3.45;100.00;99918.94;1704117;84;21508;-70
2021/12/17 10:05:07;;;;;;;5.65;2.20;;;;;;;3.51;100.00;99926.65;1703932;83;21014;-70
2021/12/17 10:07:36;;;;;;;7.17;2.00;;;;;;;3.53;100.00;99922.29;1704639;83;21066;-69
2021/12/17 10:10:05;;;;;;;4.47;2.30;;;;;;;3.49;100.00;99927.11;1694766;84;21799;-70
2021/12/17 10:12:36;;;;;;;3.83;2.02;;;;;;;3.47;100.00;99917.59;1703856;84;21576;-67
2021/12/17 10:15:16;;;;;;;6.35;1.90;;;;;;;3.47;100.00;99914.54;1705333;83;21068;-69
2021/12/17 10:18:01;;;;;;;9.95;2.22;;;;;;;3.45;100.00;99919.34;1701391;83;21105;-70
2021/12/17 10:20:32;;;;;;;8.15;2.25;;;;;;;3.39;100.00;99916.39;1712371;83;21113;-69
2021/12/17 10:23:07;;;;;;;5.92;2.33;;;;;;;3.41;100.00;99922.44;1706841;82;21112;-68
2021/12/17 10:25:43;;;;;;;8.78;2.12;;;;;;;3.43;100.00;99912.88;1700614;83;21070;-69
2021/12/17 10:28:11;;;;;;;7.22;2.40;;;;;;;3.46;100.00;99916.73;1682246;83;21065;-70
2021/12/17 10:30:42;;;;;;;5.28;2.10;;;;;;;3.55;100.00;99912.72;1639992;85;21080;-70
2021/12/17 10:33:14;;;;;;;8.13;2.10;;;;;;;3.65;100.00;99906.10;1688719;84;22072;-70
2021/12/17 10:35:44;;;;;;;8.13;2.10;;;;;;;3.74;100.00;99902.08;1712382;83;21113;-71
2021/12/17 10:38:12;;;;;;;6.60;2.12;;;;;;;3.84;100.00;99901.06;1672743;84;21649;-70
2021/12/17 10:40:52;;;;;;;6.75;2.05;;;;;;;4.02;100.00;99905.17;1710547;83;21098;-68
2021/12/17 10:43:26;;;;;;;8.95;2.10;;;;;;;4.18;100.00;99892.78;1709174;82;21627;-72
2021/12/17 10:46:09;;;;;;;6.62;1.87;;;;;;;4.35;100.00;99898.62;1698700;83;21070;-70
2021/12/17 10:48:51;;;;;;;5.85;1.92;;;;;;;4.37;100.00;99892.06;1704182;83;21164;-70
2021/12/17 10:54:16;;;;;;;5.58;2.37;;;;;;;4.20;100.00;99893.63;1717411;83;21138;-70
2021/12/17 10:56:51;;;;;;;5.20;2.00;;;;;;;4.06;100.00;99896.44;1704464;82;21116;-69
2021/12/17 10:59:30;;;;;;;4.95;1.98;;;;;;;3.90;100.00;99895.78;1721853;83;21076;-69
2021/12/17 11:02:04;;;;;;;6.30;2.00;;;;;;;3.75;100.00;99899.88;1714339;82;21848;-68
2021/12/17 11:04:36;;;;;;;5.85;1.77;;;;;;;3.64;100.00;99893.53;1719388;82;21253;-67
2021/12/17 11:07:13;;;;;;;4.12;1.85;;;;;;;3.55;100.00;99902.30;1721683;82;21365;-69
2021/12/17 11:09:55;;;;;;;4.80;1.82;;;;;;;3.47;100.00;99898.92;1711528;82;21076;-71
2021/12/17 11:12:40;;;;;;;7.90;2.00;;;;;;;3.50;100.00;99891.09;1706841;82;21027;-71
2021/12/17 11:15:11;;;;;;;5.25;1.65;;;;;;;3.54;100.00;99890.19;1720719;83;21129;-73
2021/12/17 11:17:40;;;;;;;5.50;2.15;;;;;;;3.53;100.00;99888.44;1692668;84;21048;-71
2021/12/17 11:20:11;;;;;;;6.28;1.82;;;;;;;3.55;100.00;99890.59;1674756;84;21023;-73
2021/12/17 11:22:41;;;;;;;7.30;1.80;;;;;;;3.55;100.00;99889.73;1679030;84;21424;-70
2021/12/17 11:25:09;;;;;;;8.65;1.90;;;;;;;3.55;100.00;99889.29;1695487;84;21628;-70
2021/12/17 11:27:36;;;;;;;5.08;1.70;;;;;;;3.58;100.00;99893.15;1694141;84;21115;-72
2021/12/17 11:30:13;;;;;;;6.33;1.60;;;;;;;3.59;100.00;99887.52;1695887;84;21561;-72
2021/12/17 11:32:42;;;;;;;3.33;1.60;;;;;;;3.61;100.00;99887.48;1695433;84;21556;-71
2021/12/17 11:35:09;;;;;;;3.83;1.50;;;;;;;3.64;100.00;99890.07;1691865;84;21981;-72
2021/12/17 11:37:41;;;;;;;4.17;1.72;;;;;;;3.66;100.00;99889.58;1680480;84;21068;-70
2021/12/17 11:40:30;;;;;;;6.12;1.65;;;;;;;3.67;100.00;99891.32;1661415;86;21953;-70
2021/12/17 11:43:36;;;;;;;6.42;1.80;;;;;;;3.66;100.00;99888.28;1661371;86;21068;-70
2021/12/17 11:46:07;;;;;;;4.00;1.67;;;;;;;3.63;100.00;99890.94;1664314;84;21555;-69
2021/12/17 11:48:34;;;;;;;6.70;1.67;;;;;;;3.58;100.00;99891.84;1674283;84;21103;-73
2021/12/17 11:51:19;;;;;;;2.98;1.47;;;;;;;3.52;100.00;99890.64;1677923;85;21142;-69
2021/12/17 11:54:03;;;;;;;6.20;1.65;;;;;;;3.45;100.00;99902.01;1681425;85;21116;-68
2021/12/17 11:56:45;;;;;;;3.67;1.27;;;;;;;3.37;100.00;99897.31;1677874;85;21058;-69
2021/12/17 11:59:31;;;;;;;4.83;1.57;;;;;;;3.34;100.00;99903.88;1681443;85;28724;-70
2021/12/17 12:02:05;;;;;;;6.75;1.82;;;;;;;3.33;100.00;99903.43;1681061;84;21380;-69
2021/12/17 12:04:39;;;;;;;6.92;1.80;;;;;;;3.35;100.00;99906.88;1678149;84;21156;-71
2021/12/17 12:07:16;;;;;;;7.55;2.02;;;;;;;3.34;100.00;99907.77;1679900;85;21116;-69
2021/12/17 12:10:19;;;;;;;3.50;1.67;;;;;;;3.30;100.00;99906.08;1680432;85;21577;-69
2021/12/17 12:12:53;;;;;;;4.37;1.70;;;;;;;3.30;100.00;99906.08;1680564;83;21039;-68
2021/12/17 12:15:31;;;;;;;2.67;1.40;;;;;;;3.30;100.00;99898.27;1675905;85;21113;-69
2021/12/17 12:18:15;;;;;;;3.52;1.40;;;;;;;3.27;100.00;99904.82;1680441;85;21073;-68
2021/12/17 12:20:52;;;;;;;5.40;1.80;;;;;;;3.21;100.00;99900.97;1680981;85;21220;-69
2021/12/17 12:23:34;;;;;;;4.15;1.70;;;;;;;3.20;100.00;99904.44;1680621;85;21116;-69
2021/12/17 12:26:08;;;;;;;5.05;1.82;;;;;;;3.13;100.00;99901.06;1674542;84;21068;-70
2021/12/17 12:29:05;;;;;;;3.05;1.85;;;;;;;3.09;100.00;99898.06;1680454;84;21101;-69
2021/12/17 12:31:40;;;;;;;3.80;1.65;;;;;;;3.09;100.00;99904.13;1700822;82;21098;-71
2021/12/17 12:34:10;;;;;;;3.58;2.02;;;;;;;3.11;100.00;99911.47;1715488;82;21124;-73
2021/12/17 12:37:06;;;;;;;4.00;1.70;;;;;;;3.14;100.00;99915.34;1713892;82;21120;-73
2021/12/17 12:39:42;;;;;;;3.27;1.62;;;;;;;3.11;100.00;99906.27;1716388;83;21053;-72
2021/12/17 12:42:25;;;;;;;3.92;1.55;;;;;;;3.02;100.00;99907.66;1717414;83;21113;-72
2021/12/17 12:45:00;;;;;;;3.50;1.60;;;;;;;2.99;100.00;99916.81;1717752;82;21435;-71
2021/12/17 12:47:32;;;;;;;2.72;1.60;;;;;;;2.96;100.00;99915.96;1709556;82;21137;-71
2021/12/17 12:50:12;;;;;;;3.33;1.70;;;;;;;2.94;100.00;99920.75;1714851;83;21061;-73
2021/12/17 12:52:57;;;;;;;3.00;1.20;;;;;;;2.98;100.00;99924.62;1703212;83;21034;-72
2021/12/17 12:55:31;;;;;;;8.95;1.47;;;;;;;3.00;100.00;99926.77;1696601;83;21144;-70
2021/12/17 12:58:09;;;;;;;4.95;1.10;;;;;;;2.97;100.00;99928.08;1710265;83;21554;-69
2021/12/17 13:00:41;;;;;;;7.15;1.42;;;;;;;2.95;100.00;99934.63;1700369;83;21546;-68
2021/12/17 13:03:15;;;;;;;1.37;1.00;;;;;;;2.89;100.00;99930.77;1700431;83;21017;-70
2021/12/17 13:05:47;;;;;;;2.27;1.15;;;;;;;2.81;100.00;99929.98;1711632;82;21109;-70
2021/12/17 13:08:20;;;;;;;2.17;0.90;;;;;;;2.78;100.00;99932.14;1711893;83;21026;-69
2021/12/17 13:10:54;;;;;;;3.83;1.30;;;;;;;2.77;100.00;99933.48;1712154;82;21604;-69
2021/12/17 13:24:12;;;;;;;2.22;1.00;;;;;;;2.65;100.00;99945.70;1677973;85;21069;-69
2021/12/17 13:27:02;;;;;;;3.08;1.50;;;;;;;2.63;100.00;99944.84;1697348;83;21149;-70
2021/12/17 13:29:33;;;;;;;5.33;1.52;;;;;;;2.54;100.00;99947.52;1707654;83;21093;-70
2021/12/17 13:32:10;;;;;;;4.03;1.75;;;;;;;2.54;100.00;99947.52;1704365;83;21059;-71
2021/12/17 13:34:48;;;;;;;3.87;1.70;;;;;;;2.52;100.00;99947.52;1708755;83;21018;-70
2021/12/17 13:37:26;;;;;;;5.25;1.77;;;;;;;2.47;100.00;99951.03;1677532;84;21124;-71
2021/12/17 13:39:56;;;;;;;3.12;1.42;;;;;;;2.39;100.00;99954.11;1659982;84;21528;-71
2021/12/17 13:42:27;;;;;;;6.53;2.10;;;;;;;2.29;100.00;99955.47;1670702;84;21563;-71
2021/12/17 13:44:59;;;;;;;6.17;1.70;;;;;;;2.27;100.00;99957.20;1678175;84;21029;-70
2021/12/17 13:47:38;;;;;;;3.37;1.90;;;;;;;2.13;100.00;99956.43;1677488;84;22089;-69
2021/12/17 13:50:23;;;;;;;3.58;1.55;;;;;;;2.13;100.00;99956.43;1696748;83;21037;-69
2021/12/17 13:53:15;;;;;;;3.72;1.50;;;;;;;2.10;100.00;99956.45;1702662;83;21133;-70
2021/12/17 13:55:47;;;;;;;1.95;1.42;;;;;;;2.09;100.00;99956.02;1707869;83;21054;-70
2021/12/17 13:58:17;;;;;;;3.05;1.25;;;;;;;1.97;100.00;99956.08;1703206;84;21054;-69
2021/12/17 14:00:49;;;;;;;1.77;1.20;;;;;;;1.91;100.00;99958.29;1704818;83;21026;-70
2021/12/17 14:05:40;;;;;;;4.20;0.93;;;;;;;1.86;100.00;99957.02;1794522;79;22643;-70
2021/12/17 14:08:03;;;;;;;2.87;1.37;;;;;;;1.75;100.00;99965.69;1736505;80;21087;-69
2021/12/17 14:10:33;;;;;;;2.45;1.25;;;;;;;1.74;100.00;99968.72;1712885;80;21136;-70
2021/12/17 14:13:01;;;;;;;3.35;1.47;;;;;;;1.75;100.00;99964.39;1733510;80;21646;-75
2021/12/17 14:15:32;;;;;;;3.65;1.30;;;;;;;1.84;100.00;99967.84;1744980;81;21097;-76
2021/12/17 14:18:05;;;;;;;2.05;1.20;;;;;;;1.77;100.00;99966.14;1761702;80;21716;-76
2021/12/17 14:20:44;;;;;;;2.67;1.20;;;;;;;1.75;100.00;99963.98;1748965;81;21081;-80
2021/12/17 14:23:25;;;;;;;1.50;1.10;;;;;;;1.71;100.00;99966.15;1747824;80;21475;-79
2021/12/17 14:25:57;;;;;;;3.67;1.45;;;;;;;1.65;100.00;99966.16;1749333;80;21125;-81
2021/12/17 14:28:32;;;;;;;1.95;1.20;;;;;;;1.66;100.00;99967.91;1743643;80;21092;-79
2021/12/17 14:31:04;;;;;;;3.30;1.50;;;;;;;1.64;100.00;99970.94;1764473;80;21085;-79
2021/12/17 14:33:50;;;;;;;3.20;1.50;;;;;;;1.60;100.00;99967.91;1783513;80;21052;-76
2021/12/17 14:36:30;;;;;;;2.50;1.62;;;;;;;1.57;100.00;99964.05;1777889;80;21137;-78
2021/12/17 14:39:08;;;;;;;1.92;1.22;;;;;;;1.54;100.00;99962.33;1777156;80;21072;-80
2021/12/17 14:41:49;;;;;;;1.72;1.27;;;;;;;1.51;100.00;99966.64;1767101;80;21095;-80
2021/12/17 14:44:32;;;;;;;3.05;1.57;;;;;;;1.50;100.00;99963.19;1767332;80;21116;-81